Terminal Aerodrome Forecast
Issued by NWS

Home | Current Version | Previous Version | Graphics & Text | Print | Product List | Glossary On
Versions: 1 2 3 4 5 6 7 8 9 10 11 12 13 14 15
000
FTUS43 KFGF 241130
TAFBJI
TAF
KBJI 241130Z 2412/2512 27007KT P6SM FEW120
     FM241700 26011G20KT P6SM FEW250
     FM250200 27006KT P6SM FEW250
     FM250900 27007KT P6SM BKN025=

USA.gov is the U.S. government's official web portal to all federal, state and local government web resources and services.